sensor_id;sensor_type;location;lat;lon;timestamp;P1;durP1;ratioP1;P2;durP2;ratioP2
16516;SDS011;8371;52.272;9.746;2023-04-23T00:01:17;1.40;;;1.40;;
16516;SDS011;8371;52.272;9.746;2023-04-23T00:03:43;1.70;;;1.70;;
16516;SDS011;8371;52.272;9.746;2023-04-23T00:06:10;1.60;;;1.60;;
16516;SDS011;8371;52.272;9.746;2023-04-23T00:08:40;3.03;;;1.60;;
16516;SDS011;8371;52.272;9.746;2023-04-23T00:11:06;1.57;;;1.57;;
16516;SDS011;8371;52.272;9.746;2023-04-23T00:13:33;1.57;;;1.57;;
16516;SDS011;8371;52.272;9.746;2023-04-23T00:16:00;1.83;;;1.73;;
16516;SDS011;8371;52.272;9.746;2023-04-23T00:18:27;1.47;;;1.47;;
16516;SDS011;8371;52.272;9.746;2023-04-23T00:20:53;1.37;;;1.37;;
16516;SDS011;8371;52.272;9.746;2023-04-23T00:23:19;1.90;;;1.80;;
16516;SDS011;8371;52.272;9.746;2023-04-23T00:25:45;1.77;;;1.77;;
16516;SDS011;8371;52.272;9.746;2023-04-23T00:28:11;1.70;;;1.60;;
16516;SDS011;8371;52.272;9.746;2023-04-23T00:30:37;1.60;;;1.60;;
16516;SDS011;8371;52.272;9.746;2023-04-23T00:33:02;1.87;;;1.77;;
16516;SDS011;8371;52.272;9.746;2023-04-23T00:35:28;1.87;;;1.77;;
16516;SDS011;8371;52.272;9.746;2023-04-23T00:37:54;2.00;;;1.90;;
16516;SDS011;8371;52.272;9.746;2023-04-23T00:40:20;1.77;;;1.67;;
16516;SDS011;8371;52.272;9.746;2023-04-23T00:42:45;1.70;;;1.70;;
16516;SDS011;8371;52.272;9.746;2023-04-23T00:45:13;1.63;;;1.63;;
16516;SDS011;8371;52.272;9.746;2023-04-23T00:47:39;1.90;;;1.83;;
16516;SDS011;8371;52.272;9.746;2023-04-23T00:50:05;1.90;;;1.80;;
16516;SDS011;8371;52.272;9.746;2023-04-23T00:52:32;1.73;;;1.67;;
16516;SDS011;8371;52.272;9.746;2023-04-23T00:54:58;1.50;;;1.50;;
16516;SDS011;8371;52.272;9.746;2023-04-23T00:57:24;1.87;;;1.87;;
16516;SDS011;8371;52.272;9.746;2023-04-23T00:59:50;1.13;;;1.13;;
16516;SDS011;8371;52.272;9.746;2023-04-23T01:02:16;1.70;;;1.60;;
16516;SDS011;8371;52.272;9.746;2023-04-23T01:04:42;1.53;;;1.53;;
16516;SDS011;8371;52.272;9.746;2023-04-23T01:07:12;1.53;;;1.50;;
16516;SDS011;8371;52.272;9.746;2023-04-23T01:09:38;1.70;;;1.70;;
16516;SDS011;8371;52.272;9.746;2023-04-23T01:12:05;1.60;;;1.60;;
16516;SDS011;8371;52.272;9.746;2023-04-23T01:14:31;1.40;;;1.40;;
16516;SDS011;8371;52.272;9.746;2023-04-23T01:16:57;4.27;;;1.80;;
16516;SDS011;8371;52.272;9.746;2023-04-23T01:19:23;1.40;;;1.40;;
16516;SDS011;8371;52.272;9.746;2023-04-23T01:21:49;1.40;;;1.40;;
16516;SDS011;8371;52.272;9.746;2023-04-23T01:24:15;1.37;;;1.37;;
16516;SDS011;8371;52.272;9.746;2023-04-23T01:26:41;1.50;;;1.40;;
16516;SDS011;8371;52.272;9.746;2023-04-23T01:29:07;1.77;;;1.43;;
16516;SDS011;8371;52.272;9.746;2023-04-23T01:31:34;2.10;;;1.37;;
16516;SDS011;8371;52.272;9.746;2023-04-23T01:33:59;1.43;;;1.43;;
16516;SDS011;8371;52.272;9.746;2023-04-23T01:36:26;1.30;;;1.30;;
16516;SDS011;8371;52.272;9.746;2023-04-23T01:38:52;1.60;;;1.60;;
16516;SDS011;8371;52.272;9.746;2023-04-23T01:41:18;1.43;;;1.43;;
16516;SDS011;8371;52.272;9.746;2023-04-23T01:43:44;2.60;;;1.80;;
16516;SDS011;8371;52.272;9.746;2023-04-23T01:46:10;1.67;;;1.67;;
16516;SDS011;8371;52.272;9.746;2023-04-23T01:48:37;2.43;;;2.33;;
16516;SDS011;8371;52.272;9.746;2023-04-23T01:51:03;3.40;;;3.30;;
16516;SDS011;8371;52.272;9.746;2023-04-23T01:53:29;3.50;;;3.40;;
16516;SDS011;8371;52.272;9.746;2023-04-23T01:55:55;3.77;;;3.53;;
16516;SDS011;8371;52.272;9.746;2023-04-23T01:58:21;3.87;;;3.77;;
16516;SDS011;8371;52.272;9.746;2023-04-23T02:00:48;4.23;;;4.13;;
16516;SDS011;8371;52.272;9.746;2023-04-23T02:03:14;4.00;;;3.90;;
16516;SDS011;8371;52.272;9.746;2023-04-23T02:05:40;4.60;;;4.30;;
16516;SDS011;8371;52.272;9.746;2023-04-23T02:08:07;3.43;;;3.33;;
16516;SDS011;8371;52.272;9.746;2023-04-23T02:10:33;4.13;;;3.93;;
16516;SDS011;8371;52.272;9.746;2023-04-23T02:13:00;3.83;;;3.73;;
16516;SDS011;8371;52.272;9.746;2023-04-23T02:15:26;3.63;;;3.53;;
16516;SDS011;8371;52.272;9.746;2023-04-23T02:17:52;3.93;;;3.83;;
16516;SDS011;8371;52.272;9.746;2023-04-23T02:20:18;3.47;;;3.37;;
16516;SDS011;8371;52.272;9.746;2023-04-23T02:22:44;3.50;;;3.40;;
16516;SDS011;8371;52.272;9.746;2023-04-23T02:25:11;3.80;;;3.70;;
16516;SDS011;8371;52.272;9.746;2023-04-23T02:27:39;3.53;;;3.43;;
16516;SDS011;8371;52.272;9.746;2023-04-23T02:30:05;3.30;;;3.20;;
16516;SDS011;8371;52.272;9.746;2023-04-23T02:32:34;3.27;;;3.17;;
16516;SDS011;8371;52.272;9.746;2023-04-23T02:35:00;3.13;;;3.03;;
16516;SDS011;8371;52.272;9.746;2023-04-23T02:37:26;3.67;;;3.57;;
16516;SDS011;8371;52.272;9.746;2023-04-23T02:39:52;3.63;;;3.53;;
16516;SDS011;8371;52.272;9.746;2023-04-23T02:42:18;3.60;;;3.50;;
16516;SDS011;8371;52.272;9.746;2023-04-23T02:44:44;4.20;;;4.10;;
16516;SDS011;8371;52.272;9.746;2023-04-23T02:47:09;5.47;;;5.17;;
16516;SDS011;8371;52.272;9.746;2023-04-23T02:49:35;6.17;;;5.97;;
16516;SDS011;8371;52.272;9.746;2023-04-23T02:52:01;6.37;;;6.07;;
16516;SDS011;8371;52.272;9.746;2023-04-23T02:54:27;7.00;;;6.70;;
16516;SDS011;8371;52.272;9.746;2023-04-23T02:56:53;6.63;;;6.33;;
16516;SDS011;8371;52.272;9.746;2023-04-23T02:59:19;6.70;;;6.40;;
16516;SDS011;8371;52.272;9.746;2023-04-23T03:01:44;7.37;;;7.00;;
16516;SDS011;8371;52.272;9.746;2023-04-23T03:04:10;8.17;;;7.77;;
16516;SDS011;8371;52.272;9.746;2023-04-23T03:06:36;8.43;;;7.97;;
16516;SDS011;8371;52.272;9.746;2023-04-23T03:09:02;7.50;;;7.10;;
16516;SDS011;8371;52.272;9.746;2023-04-23T03:11:28;8.43;;;7.93;;
16516;SDS011;8371;52.272;9.746;2023-04-23T03:13:53;7.97;;;7.57;;
16516;SDS011;8371;52.272;9.746;2023-04-23T03:16:19;8.13;;;7.70;;
16516;SDS011;8371;52.272;9.746;2023-04-23T03:18:45;7.70;;;7.33;;
16516;SDS011;8371;52.272;9.746;2023-04-23T03:21:10;7.67;;;7.30;;
16516;SDS011;8371;52.272;9.746;2023-04-23T03:23:37;7.40;;;7.10;;
16516;SDS011;8371;52.272;9.746;2023-04-23T03:26:02;8.43;;;7.93;;
16516;SDS011;8371;52.272;9.746;2023-04-23T03:28:29;7.50;;;7.20;;
16516;SDS011;8371;52.272;9.746;2023-04-23T03:30:55;7.23;;;6.93;;
16516;SDS011;8371;52.272;9.746;2023-04-23T03:33:21;8.20;;;7.70;;
16516;SDS011;8371;52.272;9.746;2023-04-23T03:35:46;8.73;;;8.23;;
16516;SDS011;8371;52.272;9.746;2023-04-23T03:38:12;8.93;;;8.43;;
16516;SDS011;8371;52.272;9.746;2023-04-23T03:40:38;7.87;;;7.47;;
16516;SDS011;8371;52.272;9.746;2023-04-23T03:43:03;8.33;;;7.93;;
16516;SDS011;8371;52.272;9.746;2023-04-23T03:45:29;8.27;;;7.83;;
16516;SDS011;8371;52.272;9.746;2023-04-23T03:47:55;8.77;;;8.27;;
16516;SDS011;8371;52.272;9.746;2023-04-23T03:50:21;8.30;;;7.90;;
16516;SDS011;8371;52.272;9.746;2023-04-23T03:52:46;8.10;;;7.70;;
16516;SDS011;8371;52.272;9.746;2023-04-23T03:55:12;8.00;;;7.60;;
16516;SDS011;8371;52.272;9.746;2023-04-23T03:57:38;7.57;;;7.17;;
16516;SDS011;8371;52.272;9.746;2023-04-23T04:00:04;8.40;;;7.90;;
16516;SDS011;8371;52.272;9.746;2023-04-23T04:02:35;6.73;;;6.43;;
16516;SDS011;8371;52.272;9.746;2023-04-23T04:05:01;7.17;;;6.87;;
16516;SDS011;8371;52.272;9.746;2023-04-23T04:07:27;7.13;;;6.83;;
16516;SDS011;8371;52.272;9.746;2023-04-23T04:09:53;7.50;;;7.20;;
16516;SDS011;8371;52.272;9.746;2023-04-23T04:12:19;8.50;;;8.10;;
16516;SDS011;8371;52.272;9.746;2023-04-23T04:14:45;8.23;;;7.83;;
16516;SDS011;8371;52.272;9.746;2023-04-23T04:17:10;8.23;;;7.83;;
16516;SDS011;8371;52.272;9.746;2023-04-23T04:19:37;8.70;;;8.30;;
16516;SDS011;8371;52.272;9.746;2023-04-23T04:22:03;9.40;;;8.90;;
16516;SDS011;8371;52.272;9.746;2023-04-23T04:24:29;9.53;;;8.90;;
16516;SDS011;8371;52.272;9.746;2023-04-23T04:27:00;9.57;;;9.07;;
16516;SDS011;8371;52.272;9.746;2023-04-23T04:29:26;10.13;;;9.43;;
16516;SDS011;8371;52.272;9.746;2023-04-23T04:31:53;10.47;;;9.77;;
16516;SDS011;8371;52.272;9.746;2023-04-23T04:34:19;9.00;;;8.60;;
16516;SDS011;8371;52.272;9.746;2023-04-23T04:36:45;9.40;;;8.90;;
16516;SDS011;8371;52.272;9.746;2023-04-23T04:39:11;9.87;;;9.33;;
16516;SDS011;8371;52.272;9.746;2023-04-23T04:41:38;10.77;;;10.10;;
16516;SDS011;8371;52.272;9.746;2023-04-23T04:44:05;10.27;;;9.57;;
16516;SDS011;8371;52.272;9.746;2023-04-23T04:46:32;10.47;;;9.87;;
16516;SDS011;8371;52.272;9.746;2023-04-23T04:49:00;10.57;;;9.77;;
16516;SDS011;8371;52.272;9.746;2023-04-23T04:51:26;10.03;;;9.43;;
16516;SDS011;8371;52.272;9.746;2023-04-23T04:53:52;11.10;;;10.30;;
16516;SDS011;8371;52.272;9.746;2023-04-23T04:56:18;10.87;;;9.97;;
16516;SDS011;8371;52.272;9.746;2023-04-23T04:58:44;10.87;;;10.27;;
16516;SDS011;8371;52.272;9.746;2023-04-23T05:01:09;9.77;;;9.17;;
16516;SDS011;8371;52.272;9.746;2023-04-23T05:03:37;9.70;;;9.20;;
16516;SDS011;8371;52.272;9.746;2023-04-23T05:06:03;12.13;;;11.27;;
16516;SDS011;8371;52.272;9.746;2023-04-23T05:08:29;10.10;;;9.40;;
16516;SDS011;8371;52.272;9.746;2023-04-23T05:10:55;10.83;;;10.13;;
16516;SDS011;8371;52.272;9.746;2023-04-23T05:13:20;9.87;;;9.27;;
16516;SDS011;8371;52.272;9.746;2023-04-23T05:15:46;9.50;;;9.00;;
16516;SDS011;8371;52.272;9.746;2023-04-23T05:18:12;10.53;;;9.73;;
16516;SDS011;8371;52.272;9.746;2023-04-23T05:20:37;10.03;;;9.33;;
16516;SDS011;8371;52.272;9.746;2023-04-23T05:23:03;11.53;;;10.63;;
16516;SDS011;8371;52.272;9.746;2023-04-23T05:25:31;10.90;;;10.20;;
16516;SDS011;8371;52.272;9.746;2023-04-23T05:27:56;10.40;;;9.80;;
16516;SDS011;8371;52.272;9.746;2023-04-23T05:30:22;10.50;;;9.80;;
16516;SDS011;8371;52.272;9.746;2023-04-23T05:32:48;10.33;;;9.63;;
16516;SDS011;8371;52.272;9.746;2023-04-23T05:35:14;10.70;;;9.80;;
16516;SDS011;8371;52.272;9.746;2023-04-23T05:37:39;11.37;;;10.63;;
16516;SDS011;8371;52.272;9.746;2023-04-23T05:40:05;10.53;;;9.83;;
16516;SDS011;8371;52.272;9.746;2023-04-23T05:42:33;9.57;;;9.03;;
16516;SDS011;8371;52.272;9.746;2023-04-23T05:45:00;9.67;;;9.03;;
16516;SDS011;8371;52.272;9.746;2023-04-23T05:47:27;10.77;;;10.00;;
16516;SDS011;8371;52.272;9.746;2023-04-23T05:49:54;10.53;;;9.83;;
16516;SDS011;8371;52.272;9.746;2023-04-23T05:52:21;10.00;;;9.37;;
16516;SDS011;8371;52.272;9.746;2023-04-23T05:54:48;9.97;;;9.37;;
16516;SDS011;8371;52.272;9.746;2023-04-23T05:57:13;11.43;;;10.73;;
16516;SDS011;8371;52.272;9.746;2023-04-23T05:59:39;10.13;;;9.53;;
16516;SDS011;8371;52.272;9.746;2023-04-23T06:02:05;10.87;;;10.27;;
16516;SDS011;8371;52.272;9.746;2023-04-23T06:04:32;11.47;;;10.67;;
16516;SDS011;8371;52.272;9.746;2023-04-23T06:06:57;10.30;;;9.70;;
16516;SDS011;8371;52.272;9.746;2023-04-23T06:09:23;11.37;;;10.57;;
16516;SDS011;8371;52.272;9.746;2023-04-23T06:11:50;10.57;;;9.87;;
16516;SDS011;8371;52.272;9.746;2023-04-23T06:14:16;10.77;;;9.97;;
16516;SDS011;8371;52.272;9.746;2023-04-23T06:16:42;9.97;;;9.37;;
16516;SDS011;8371;52.272;9.746;2023-04-23T06:19:07;10.33;;;9.73;;
16516;SDS011;8371;52.272;9.746;2023-04-23T06:21:33;9.90;;;9.27;;
16516;SDS011;8371;52.272;9.746;2023-04-23T06:23:59;10.17;;;9.53;;
16516;SDS011;8371;52.272;9.746;2023-04-23T06:26:25;10.40;;;9.63;;
16516;SDS011;8371;52.272;9.746;2023-04-23T06:28:50;10.73;;;9.93;;
16516;SDS011;8371;52.272;9.746;2023-04-23T06:31:16;11.37;;;10.37;;
16516;SDS011;8371;52.272;9.746;2023-04-23T06:33:42;9.93;;;9.37;;
16516;SDS011;8371;52.272;9.746;2023-04-23T06:36:08;9.97;;;9.47;;
16516;SDS011;8371;52.272;9.746;2023-04-23T06:38:36;11.47;;;10.57;;
16516;SDS011;8371;52.272;9.746;2023-04-23T06:41:03;10.13;;;9.53;;
16516;SDS011;8371;52.272;9.746;2023-04-23T06:43:29;11.20;;;10.30;;
16516;SDS011;8371;52.272;9.746;2023-04-23T06:45:55;11.10;;;10.30;;
16516;SDS011;8371;52.272;9.746;2023-04-23T06:48:21;10.50;;;9.87;;
16516;SDS011;8371;52.272;9.746;2023-04-23T06:50:47;11.40;;;10.50;;
16516;SDS011;8371;52.272;9.746;2023-04-23T06:53:13;11.03;;;10.07;;
16516;SDS011;8371;52.272;9.746;2023-04-23T06:55:39;10.53;;;9.83;;
16516;SDS011;8371;52.272;9.746;2023-04-23T06:58:05;11.23;;;10.53;;
16516;SDS011;8371;52.272;9.746;2023-04-23T07:00:33;10.90;;;10.23;;
16516;SDS011;8371;52.272;9.746;2023-04-23T07:02:58;9.53;;;9.00;;
16516;SDS011;8371;52.272;9.746;2023-04-23T07:05:24;10.87;;;10.17;;
16516;SDS011;8371;52.272;9.746;2023-04-23T07:07:50;10.87;;;10.10;;
16516;SDS011;8371;52.272;9.746;2023-04-23T07:10:16;10.07;;;9.57;;
16516;SDS011;8371;52.272;9.746;2023-04-23T07:12:41;10.87;;;10.17;;
16516;SDS011;8371;52.272;9.746;2023-04-23T07:15:07;10.97;;;10.17;;
16516;SDS011;8371;52.272;9.746;2023-04-23T07:17:33;10.67;;;10.00;;
16516;SDS011;8371;52.272;9.746;2023-04-23T07:20:00;11.07;;;10.37;;
16516;SDS011;8371;52.272;9.746;2023-04-23T07:22:27;11.03;;;10.40;;
16516;SDS011;8371;52.272;9.746;2023-04-23T07:24:53;10.53;;;9.73;;
16516;SDS011;8371;52.272;9.746;2023-04-23T07:27:19;11.00;;;10.37;;
16516;SDS011;8371;52.272;9.746;2023-04-23T07:29:44;10.77;;;10.17;;
16516;SDS011;8371;52.272;9.746;2023-04-23T07:32:10;10.87;;;10.23;;
16516;SDS011;8371;52.272;9.746;2023-04-23T07:34:36;11.30;;;10.60;;
16516;SDS011;8371;52.272;9.746;2023-04-23T07:37:03;11.23;;;10.53;;
16516;SDS011;8371;52.272;9.746;2023-04-23T07:39:28;10.93;;;10.37;;
16516;SDS011;8371;52.272;9.746;2023-04-23T07:41:54;11.03;;;10.43;;
16516;SDS011;8371;52.272;9.746;2023-04-23T07:44:21;10.63;;;10.07;;
16516;SDS011;8371;52.272;9.746;2023-04-23T07:46:46;11.10;;;10.40;;
16516;SDS011;8371;52.272;9.746;2023-04-23T07:49:12;10.27;;;9.70;;
16516;SDS011;8371;52.272;9.746;2023-04-23T07:51:38;11.10;;;10.23;;
16516;SDS011;8371;52.272;9.746;2023-04-23T07:54:04;9.10;;;8.63;;
16516;SDS011;8371;52.272;9.746;2023-04-23T07:56:30;8.87;;;8.47;;
16516;SDS011;8371;52.272;9.746;2023-04-23T07:58:57;9.97;;;9.37;;
16516;SDS011;8371;52.272;9.746;2023-04-23T08:01:24;8.80;;;8.40;;
16516;SDS011;8371;52.272;9.746;2023-04-23T08:03:50;8.83;;;8.40;;
16516;SDS011;8371;52.272;9.746;2023-04-23T08:06:15;9.10;;;8.50;;
16516;SDS011;8371;52.272;9.746;2023-04-23T08:08:42;9.03;;;8.40;;
16516;SDS011;8371;52.272;9.746;2023-04-23T08:11:08;9.20;;;8.70;;
16516;SDS011;8371;52.272;9.746;2023-04-23T08:13:35;8.30;;;7.97;;
16516;SDS011;8371;52.272;9.746;2023-04-23T08:16:00;9.20;;;8.80;;
16516;SDS011;8371;52.272;9.746;2023-04-23T08:18:26;8.97;;;8.43;;
16516;SDS011;8371;52.272;9.746;2023-04-23T08:20:52;8.63;;;8.23;;
16516;SDS011;8371;52.272;9.746;2023-04-23T08:23:19;9.33;;;8.73;;
16516;SDS011;8371;52.272;9.746;2023-04-23T08:25:44;9.87;;;9.37;;
16516;SDS011;8371;52.272;9.746;2023-04-23T08:28:10;8.70;;;8.30;;
16516;SDS011;8371;52.272;9.746;2023-04-23T08:30:36;8.90;;;8.33;;
16516;SDS011;8371;52.272;9.746;2023-04-23T08:33:02;9.13;;;8.73;;
16516;SDS011;8371;52.272;9.746;2023-04-23T08:35:28;8.43;;;8.00;;
16516;SDS011;8371;52.272;9.746;2023-04-23T08:37:54;7.63;;;7.23;;
16516;SDS011;8371;52.272;9.746;2023-04-23T08:40:20;8.57;;;8.17;;
16516;SDS011;8371;52.272;9.746;2023-04-23T08:45:15;7.67;;;7.27;;
16516;SDS011;8371;52.272;9.746;2023-04-23T08:47:42;7.93;;;7.23;;
16516;SDS011;8371;52.272;9.746;2023-04-23T08:50:11;7.00;;;6.70;;
16516;SDS011;8371;52.272;9.746;2023-04-23T08:52:42;7.63;;;7.27;;
16516;SDS011;8371;52.272;9.746;2023-04-23T08:55:13;7.30;;;7.00;;
16516;SDS011;8371;52.272;9.746;2023-04-23T08:57:40;7.53;;;7.17;;
16516;SDS011;8371;52.272;9.746;2023-04-23T09:00:07;7.00;;;6.70;;
16516;SDS011;8371;52.272;9.746;2023-04-23T09:02:35;7.03;;;6.73;;
16516;SDS011;8371;52.272;9.746;2023-04-23T09:05:03;7.30;;;6.90;;
16516;SDS011;8371;52.272;9.746;2023-04-23T09:07:29;7.13;;;6.83;;
16516;SDS011;8371;52.272;9.746;2023-04-23T09:09:55;7.00;;;6.70;;
16516;SDS011;8371;52.272;9.746;2023-04-23T09:12:21;6.63;;;6.33;;
16516;SDS011;8371;52.272;9.746;2023-04-23T09:14:48;6.60;;;6.40;;
16516;SDS011;8371;52.272;9.746;2023-04-23T09:17:18;5.77;;;5.50;;
16516;SDS011;8371;52.272;9.746;2023-04-23T09:19:47;6.20;;;5.80;;
16516;SDS011;8371;52.272;9.746;2023-04-23T09:22:14;5.00;;;4.80;;
16516;SDS011;8371;52.272;9.746;2023-04-23T09:24:41;4.90;;;4.70;;
16516;SDS011;8371;52.272;9.746;2023-04-23T09:27:08;5.63;;;5.40;;
16516;SDS011;8371;52.272;9.746;2023-04-23T09:29:34;4.97;;;4.83;;
16516;SDS011;8371;52.272;9.746;2023-04-23T09:32:05;4.17;;;4.07;;
16516;SDS011;8371;52.272;9.746;2023-04-23T09:34:33;4.70;;;4.57;;
16516;SDS011;8371;52.272;9.746;2023-04-23T09:37:01;4.43;;;4.33;;
16516;SDS011;8371;52.272;9.746;2023-04-23T09:39:28;4.67;;;4.57;;
16516;SDS011;8371;52.272;9.746;2023-04-23T09:41:54;4.90;;;4.70;;
16516;SDS011;8371;52.272;9.746;2023-04-23T09:44:23;4.23;;;4.13;;
16516;SDS011;8371;52.272;9.746;2023-04-23T09:46:50;4.83;;;4.63;;
16516;SDS011;8371;52.272;9.746;2023-04-23T09:49:16;4.87;;;4.67;;
16516;SDS011;8371;52.272;9.746;2023-04-23T09:51:46;4.37;;;4.27;;
16516;SDS011;8371;52.272;9.746;2023-04-23T09:54:13;4.10;;;4.00;;
16516;SDS011;8371;52.272;9.746;2023-04-23T09:56:41;4.30;;;4.20;;
16516;SDS011;8371;52.272;9.746;2023-04-23T09:59:20;4.23;;;4.13;;
16516;SDS011;8371;52.272;9.746;2023-04-23T10:01:48;4.40;;;4.20;;
16516;SDS011;8371;52.272;9.746;2023-04-23T10:04:21;4.20;;;3.90;;
16516;SDS011;8371;52.272;9.746;2023-04-23T10:06:53;4.03;;;3.93;;
16516;SDS011;8371;52.272;9.746;2023-04-23T10:09:22;3.93;;;3.83;;
16516;SDS011;8371;52.272;9.746;2023-04-23T10:11:54;4.07;;;3.87;;
16516;SDS011;8371;52.272;9.746;2023-04-23T10:14:21;4.10;;;3.90;;
16516;SDS011;8371;52.272;9.746;2023-04-23T10:16:52;4.00;;;3.90;;
16516;SDS011;8371;52.272;9.746;2023-04-23T10:19:21;3.80;;;3.70;;
16516;SDS011;8371;52.272;9.746;2023-04-23T10:21:55;3.73;;;3.60;;
16516;SDS011;8371;52.272;9.746;2023-04-23T10:24:23;4.37;;;4.27;;
16516;SDS011;8371;52.272;9.746;2023-04-23T10:26:50;4.17;;;3.90;;
16516;SDS011;8371;52.272;9.746;2023-04-23T10:29:19;3.13;;;3.03;;
16516;SDS011;8371;52.272;9.746;2023-04-23T10:31:47;3.07;;;2.97;;
16516;SDS011;8371;52.272;9.746;2023-04-23T10:34:15;3.03;;;2.93;;
16516;SDS011;8371;52.272;9.746;2023-04-23T10:36:41;3.27;;;3.17;;
16516;SDS011;8371;52.272;9.746;2023-04-23T10:39:07;3.30;;;3.20;;
16516;SDS011;8371;52.272;9.746;2023-04-23T10:41:35;3.50;;;3.40;;
16516;SDS011;8371;52.272;9.746;2023-04-23T10:44:10;3.33;;;3.23;;
16516;SDS011;8371;52.272;9.746;2023-04-23T10:46:37;2.97;;;2.87;;
16516;SDS011;8371;52.272;9.746;2023-04-23T10:51:41;2.70;;;2.63;;
16516;SDS011;8371;52.272;9.746;2023-04-23T10:54:09;3.20;;;3.10;;
16516;SDS011;8371;52.272;9.746;2023-04-23T10:56:39;2.97;;;2.87;;
16516;SDS011;8371;52.272;9.746;2023-04-23T10:59:18;3.03;;;2.93;;
16516;SDS011;8371;52.272;9.746;2023-04-23T11:01:51;3.10;;;3.00;;
16516;SDS011;8371;52.272;9.746;2023-04-23T11:04:20;3.37;;;3.27;;
16516;SDS011;8371;52.272;9.746;2023-04-23T11:06:54;2.83;;;2.73;;
16516;SDS011;8371;52.272;9.746;2023-04-23T11:09:39;3.17;;;3.07;;
16516;SDS011;8371;52.272;9.746;2023-04-23T11:15:14;3.10;;;3.00;;
16516;SDS011;8371;52.272;9.746;2023-04-23T11:20:13;2.73;;;2.60;;
16516;SDS011;8371;52.272;9.746;2023-04-23T11:22:42;2.67;;;2.57;;
16516;SDS011;8371;52.272;9.746;2023-04-23T11:25:18;2.63;;;2.53;;
16516;SDS011;8371;52.272;9.746;2023-04-23T11:27:42;2.17;;;2.17;;
16516;SDS011;8371;52.272;9.746;2023-04-23T11:30:11;2.30;;;2.20;;
16516;SDS011;8371;52.272;9.746;2023-04-23T11:32:45;1.80;;;1.80;;
16516;SDS011;8371;52.272;9.746;2023-04-23T11:35:13;1.87;;;1.87;;
16516;SDS011;8371;52.272;9.746;2023-04-23T11:37:41;2.20;;;2.20;;
16516;SDS011;8371;52.272;9.746;2023-04-23T11:40:11;1.77;;;1.77;;
16516;SDS011;8371;52.272;9.746;2023-04-23T11:45:14;2.17;;;2.17;;
16516;SDS011;8371;52.272;9.746;2023-04-23T11:47:43;1.97;;;1.87;;
16516;SDS011;8371;52.272;9.746;2023-04-23T11:50:10;2.47;;;2.47;;
16516;SDS011;8371;52.272;9.746;2023-04-23T11:52:55;2.20;;;2.20;;
16516;SDS011;8371;52.272;9.746;2023-04-23T11:55:21;3.43;;;3.33;;
16516;SDS011;8371;52.272;9.746;2023-04-23T11:57:48;2.53;;;2.43;;
16516;SDS011;8371;52.272;9.746;2023-04-23T12:00:15;2.87;;;2.60;;
16516;SDS011;8371;52.272;9.746;2023-04-23T12:05:31;2.17;;;2.17;;
16516;SDS011;8371;52.272;9.746;2023-04-23T12:08:13;2.13;;;2.13;;
16516;SDS011;8371;52.272;9.746;2023-04-23T12:13:13;1.93;;;1.83;;
16516;SDS011;8371;52.272;9.746;2023-04-23T12:15:49;2.77;;;1.87;;
16516;SDS011;8371;52.272;9.746;2023-04-23T12:18:17;2.00;;;1.90;;
16516;SDS011;8371;52.272;9.746;2023-04-23T12:20:43;1.87;;;1.87;;
16516;SDS011;8371;52.272;9.746;2023-04-23T12:23:10;2.40;;;2.30;;
16516;SDS011;8371;52.272;9.746;2023-04-23T12:25:38;2.17;;;2.10;;
16516;SDS011;8371;52.272;9.746;2023-04-23T12:28:05;1.77;;;1.77;;
16516;SDS011;8371;52.272;9.746;2023-04-23T12:30:32;1.60;;;1.60;;
16516;SDS011;8371;52.272;9.746;2023-04-23T12:32:59;1.40;;;1.40;;
16516;SDS011;8371;52.272;9.746;2023-04-23T12:35:36;1.30;;;1.30;;
16516;SDS011;8371;52.272;9.746;2023-04-23T12:38:05;1.40;;;1.40;;
16516;SDS011;8371;52.272;9.746;2023-04-23T12:40:31;1.43;;;1.43;;
16516;SDS011;8371;52.272;9.746;2023-04-23T12:42:58;1.50;;;1.03;;
16516;SDS011;8371;52.272;9.746;2023-04-23T12:45:24;1.30;;;1.20;;
16516;SDS011;8371;52.272;9.746;2023-04-23T12:47:50;0.80;;;0.80;;
16516;SDS011;8371;52.272;9.746;2023-04-23T12:50:15;1.10;;;1.10;;
16516;SDS011;8371;52.272;9.746;2023-04-23T12:52:41;1.00;;;1.00;;
16516;SDS011;8371;52.272;9.746;2023-04-23T12:55:07;1.00;;;1.00;;
16516;SDS011;8371;52.272;9.746;2023-04-23T12:57:33;1.30;;;1.20;;
16516;SDS011;8371;52.272;9.746;2023-04-23T12:59:59;1.20;;;1.20;;
16516;SDS011;8371;52.272;9.746;2023-04-23T13:02:24;1.20;;;1.20;;
16516;SDS011;8371;52.272;9.746;2023-04-23T13:04:50;1.00;;;1.00;;
16516;SDS011;8371;52.272;9.746;2023-04-23T13:07:16;0.90;;;0.90;;
16516;SDS011;8371;52.272;9.746;2023-04-23T13:09:42;0.90;;;0.90;;
16516;SDS011;8371;52.272;9.746;2023-04-23T13:12:07;0.63;;;0.63;;
16516;SDS011;8371;52.272;9.746;2023-04-23T13:14:33;3.20;;;1.10;;
16516;SDS011;8371;52.272;9.746;2023-04-23T13:16:59;1.80;;;0.77;;
16516;SDS011;8371;52.272;9.746;2023-04-23T13:19:25;0.80;;;0.80;;
16516;SDS011;8371;52.272;9.746;2023-04-23T13:21:50;0.70;;;0.70;;
16516;SDS011;8371;52.272;9.746;2023-04-23T13:24:16;0.80;;;0.80;;
16516;SDS011;8371;52.272;9.746;2023-04-23T13:26:42;0.50;;;0.50;;
16516;SDS011;8371;52.272;9.746;2023-04-23T13:29:07;0.50;;;0.50;;
16516;SDS011;8371;52.272;9.746;2023-04-23T13:31:33;0.63;;;0.63;;
16516;SDS011;8371;52.272;9.746;2023-04-23T13:33:59;0.70;;;0.70;;
16516;SDS011;8371;52.272;9.746;2023-04-23T13:36:26;0.33;;;0.33;;
16516;SDS011;8371;52.272;9.746;2023-04-23T13:38:52;0.57;;;0.50;;
16516;SDS011;8371;52.272;9.746;2023-04-23T13:41:18;0.50;;;0.50;;
16516;SDS011;8371;52.272;9.746;2023-04-23T13:43:43;0.40;;;0.40;;
16516;SDS011;8371;52.272;9.746;2023-04-23T13:46:09;0.40;;;0.40;;
16516;SDS011;8371;52.272;9.746;2023-04-23T13:48:35;0.30;;;0.30;;
16516;SDS011;8371;52.272;9.746;2023-04-23T13:51:01;0.30;;;0.30;;
16516;SDS011;8371;52.272;9.746;2023-04-23T13:53:26;0.33;;;0.33;;
16516;SDS011;8371;52.272;9.746;2023-04-23T13:55:53;0.23;;;0.23;;
16516;SDS011;8371;52.272;9.746;2023-04-23T13:58:20;0.40;;;0.40;;
16516;SDS011;8371;52.272;9.746;2023-04-23T14:00:46;0.30;;;0.30;;
16516;SDS011;8371;52.272;9.746;2023-04-23T14:03:11;0.30;;;0.30;;
16516;SDS011;8371;52.272;9.746;2023-04-23T14:05:37;0.50;;;0.50;;
16516;SDS011;8371;52.272;9.746;2023-04-23T14:08:03;0.30;;;0.30;;
16516;SDS011;8371;52.272;9.746;2023-04-23T14:10:29;0.30;;;0.30;;
16516;SDS011;8371;52.272;9.746;2023-04-23T14:12:55;0.50;;;0.50;;
16516;SDS011;8371;52.272;9.746;2023-04-23T14:15:21;0.50;;;0.50;;
16516;SDS011;8371;52.272;9.746;2023-04-23T14:17:47;0.43;;;0.43;;
16516;SDS011;8371;52.272;9.746;2023-04-23T14:20:13;0.53;;;0.53;;
16516;SDS011;8371;52.272;9.746;2023-04-23T14:22:40;0.50;;;0.50;;
16516;SDS011;8371;52.272;9.746;2023-04-23T14:25:07;0.60;;;0.60;;
16516;SDS011;8371;52.272;9.746;2023-04-23T14:27:44;0.37;;;0.37;;
16516;SDS011;8371;52.272;9.746;2023-04-23T14:30:19;0.43;;;0.43;;
16516;SDS011;8371;52.272;9.746;2023-04-23T14:32:45;0.70;;;0.70;;
16516;SDS011;8371;52.272;9.746;2023-04-23T14:35:15;0.50;;;0.50;;
16516;SDS011;8371;52.272;9.746;2023-04-23T14:37:41;0.70;;;0.70;;
16516;SDS011;8371;52.272;9.746;2023-04-23T14:40:09;0.50;;;0.50;;
16516;SDS011;8371;52.272;9.746;2023-04-23T14:42:37;0.60;;;0.60;;
16516;SDS011;8371;52.272;9.746;2023-04-23T14:45:04;0.67;;;0.67;;
16516;SDS011;8371;52.272;9.746;2023-04-23T14:47:30;1.63;;;0.80;;
16516;SDS011;8371;52.272;9.746;2023-04-23T14:49:56;0.60;;;0.60;;
16516;SDS011;8371;52.272;9.746;2023-04-23T14:52:22;0.50;;;0.50;;
16516;SDS011;8371;52.272;9.746;2023-04-23T14:54:48;0.50;;;0.50;;
16516;SDS011;8371;52.272;9.746;2023-04-23T14:57:14;0.50;;;0.50;;
16516;SDS011;8371;52.272;9.746;2023-04-23T14:59:40;0.40;;;0.40;;
16516;SDS011;8371;52.272;9.746;2023-04-23T15:02:05;0.30;;;0.30;;
16516;SDS011;8371;52.272;9.746;2023-04-23T15:04:31;0.40;;;0.40;;
16516;SDS011;8371;52.272;9.746;2023-04-23T15:06:57;0.70;;;0.50;;
16516;SDS011;8371;52.272;9.746;2023-04-23T15:09:23;0.37;;;0.30;;
16516;SDS011;8371;52.272;9.746;2023-04-23T15:11:49;0.40;;;0.40;;
16516;SDS011;8371;52.272;9.746;2023-04-23T15:14:17;0.20;;;0.20;;